Upstream stations:
Downstream station:
SHEF ID: BRIO2 Canadian River at Bridgeport, OK
STATION TYPE:
Regulating: Stage = 15.00, Flow = 8545
STAGE RIV-FLOW
ft cfs
Ccp-Rev Ccp-Rev
(US/Central)
05/15 00:00 12.60 2190
05/15 01:00 12.59 2176
05/15 02:00 12.57 2146
05/15 03:00 9.81 113
05/15 04:00 12.57 2146
05/15 05:00 12.55 2117
05/15 06:00 12.57 2146
05/15 07:00 13.15 3111
05/15 08:00 13.06 2945
05/15 09:00 9.81 113
05/15 10:00 9.80 111
05/15 11:00 12.90 2665
05/15 12:00 12.87 2615
05/15 13:00 12.86 2598
05/15 14:00 12.82 2532
05/15 15:00 12.82 2532
05/15 16:00 12.82 2532
05/15 17:00 12.81 2516
05/15 18:00 12.80 2500
05/15 19:00 12.78 2467
05/15 20:00 12.67 2295
05/15 21:00 12.63 2235
05/15 22:00 9.75 98
05/15 23:00 ---- ----